sensor_id;sensor_type;location;lat;lon;timestamp;pressure;altitude;pressure_sealevel;temperature;humidity
71964;BME280;59834;52.124;5.422;2023-07-13T00:01:54;101370.38;;;16.61;78.00
71964;BME280;59834;52.124;5.422;2023-07-13T00:04:23;101382.00;;;16.59;78.18
71964;BME280;59834;52.124;5.422;2023-07-13T00:06:52;101382.50;;;16.53;78.77
71964;BME280;59834;52.124;5.422;2023-07-13T00:09:19;101378.56;;;16.47;79.05
71964;BME280;59834;52.124;5.422;2023-07-13T00:11:51;101376.03;;;16.45;79.07
71964;BME280;59834;52.124;5.422;2023-07-13T00:14:19;101385.91;;;16.43;79.63
71964;BME280;59834;52.124;5.422;2023-07-13T00:16:45;101383.75;;;16.37;79.79
71964;BME280;59834;52.124;5.422;2023-07-13T00:19:13;101385.88;;;16.32;79.68
71964;BME280;59834;52.124;5.422;2023-07-13T00:21:41;101379.56;;;16.23;80.12
71964;BME280;59834;52.124;5.422;2023-07-13T00:24:12;101378.22;;;16.18;80.43
71964;BME280;59834;52.124;5.422;2023-07-13T00:26:40;101374.00;;;16.15;79.65
71964;BME280;59834;52.124;5.422;2023-07-13T00:29:06;101383.50;;;16.18;79.48
71964;BME280;59834;52.124;5.422;2023-07-13T00:31:35;101385.19;;;16.19;79.46
71964;BME280;59834;52.124;5.422;2023-07-13T00:34:02;101384.34;;;16.18;79.21
71964;BME280;59834;52.124;5.422;2023-07-13T00:36:30;101379.78;;;16.09;79.76
71964;BME280;59834;52.124;5.422;2023-07-13T00:38:57;101385.66;;;16.01;80.43
71964;BME280;59834;52.124;5.422;2023-07-13T00:41:23;101381.34;;;16.00;80.75
71964;BME280;59834;52.124;5.422;2023-07-13T00:43:50;101379.66;;;15.99;80.19
71964;BME280;59834;52.124;5.422;2023-07-13T00:46:24;101383.25;;;15.98;80.32
71964;BME280;59834;52.124;5.422;2023-07-13T00:48:53;101380.63;;;15.98;80.37
71964;BME280;59834;52.124;5.422;2023-07-13T00:51:26;101385.44;;;15.93;80.58
71964;BME280;59834;52.124;5.422;2023-07-13T00:53:56;101383.97;;;15.89;80.82
71964;BME280;59834;52.124;5.422;2023-07-13T00:56:24;101386.72;;;15.88;80.22
71964;BME280;59834;52.124;5.422;2023-07-13T00:58:52;101385.16;;;15.85;81.06
71964;BME280;59834;52.124;5.422;2023-07-13T01:01:19;101382.75;;;15.82;81.43
71964;BME280;59834;52.124;5.422;2023-07-13T01:03:45;101384.91;;;15.77;81.49
71964;BME280;59834;52.124;5.422;2023-07-13T01:06:13;101382.63;;;15.72;81.58
71964;BME280;59834;52.124;5.422;2023-07-13T01:08:40;101381.19;;;15.68;82.19
71964;BME280;59834;52.124;5.422;2023-07-13T01:11:07;101378.88;;;15.64;82.37
71964;BME280;59834;52.124;5.422;2023-07-13T01:13:34;101378.25;;;15.60;82.62
71964;BME280;59834;52.124;5.422;2023-07-13T01:16:05;101388.53;;;15.52;83.16
71964;BME280;59834;52.124;5.422;2023-07-13T01:18:38;101388.06;;;15.47;83.95
71964;BME280;59834;52.124;5.422;2023-07-13T01:21:04;101396.06;;;15.45;83.32
71964;BME280;59834;52.124;5.422;2023-07-13T01:23:32;101403.50;;;15.40;83.30
71964;BME280;59834;52.124;5.422;2023-07-13T01:25:59;101403.97;;;15.34;84.14
71964;BME280;59834;52.124;5.422;2023-07-13T01:28:27;101400.81;;;15.29;84.47
71964;BME280;59834;52.124;5.422;2023-07-13T01:30:56;101392.28;;;15.25;84.80
71964;BME280;59834;52.124;5.422;2023-07-13T01:33:24;101393.47;;;15.21;85.00
71964;BME280;59834;52.124;5.422;2023-07-13T01:35:51;101390.56;;;15.13;85.23
71964;BME280;59834;52.124;5.422;2023-07-13T01:38:21;101402.19;;;15.11;85.36
71964;BME280;59834;52.124;5.422;2023-07-13T01:40:52;101399.69;;;15.09;86.18
71964;BME280;59834;52.124;5.422;2023-07-13T01:43:19;101400.00;;;15.04;86.02
71964;BME280;59834;52.124;5.422;2023-07-13T01:45:45;101394.09;;;15.01;85.98
71964;BME280;59834;52.124;5.422;2023-07-13T01:48:13;101389.06;;;14.98;86.50
71964;BME280;59834;52.124;5.422;2023-07-13T01:50:40;101394.69;;;14.93;86.82
71964;BME280;59834;52.124;5.422;2023-07-13T01:53:06;101393.22;;;14.89;86.86
71964;BME280;59834;52.124;5.422;2023-07-13T01:55:33;101401.97;;;14.90;86.75
71964;BME280;59834;52.124;5.422;2023-07-13T01:58:00;101404.81;;;14.87;87.16
71964;BME280;59834;52.124;5.422;2023-07-13T02:00:27;101401.34;;;14.86;87.61
71964;BME280;59834;52.124;5.422;2023-07-13T02:02:54;101399.66;;;14.85;87.17
71964;BME280;59834;52.124;5.422;2023-07-13T02:05:20;101393.88;;;14.80;87.23
71964;BME280;59834;52.124;5.422;2023-07-13T02:07:47;101389.66;;;14.77;87.67
71964;BME280;59834;52.124;5.422;2023-07-13T02:10:13;101403.91;;;14.75;87.44
71964;BME280;59834;52.124;5.422;2023-07-13T02:12:41;101405.06;;;14.71;88.18
71964;BME280;59834;52.124;5.422;2023-07-13T02:15:08;101409.59;;;14.69;88.15
71964;BME280;59834;52.124;5.422;2023-07-13T02:17:35;101409.72;;;14.67;88.10
71964;BME280;59834;52.124;5.422;2023-07-13T02:20:03;101417.75;;;14.66;88.15
71964;BME280;59834;52.124;5.422;2023-07-13T02:22:30;101407.53;;;14.61;88.75
71964;BME280;59834;52.124;5.422;2023-07-13T02:24:57;101412.91;;;14.59;89.25
71964;BME280;59834;52.124;5.422;2023-07-13T02:27:24;101408.50;;;14.60;88.94
71964;BME280;59834;52.124;5.422;2023-07-13T02:29:50;101407.88;;;14.56;89.02
71964;BME280;59834;52.124;5.422;2023-07-13T02:32:20;101411.69;;;14.52;89.69
71964;BME280;59834;52.124;5.422;2023-07-13T02:34:46;101410.94;;;14.50;89.74
71964;BME280;59834;52.124;5.422;2023-07-13T02:37:13;101410.16;;;14.48;89.96
71964;BME280;59834;52.124;5.422;2023-07-13T02:39:39;101408.69;;;14.44;89.97
71964;BME280;59834;52.124;5.422;2023-07-13T02:42:06;101419.44;;;14.41;90.65
71964;BME280;59834;52.124;5.422;2023-07-13T02:44:33;101427.47;;;14.39;90.88
71964;BME280;59834;52.124;5.422;2023-07-13T02:46:59;101419.66;;;14.38;91.30
71964;BME280;59834;52.124;5.422;2023-07-13T02:49:26;101423.38;;;14.35;91.24
71964;BME280;59834;52.124;5.422;2023-07-13T02:51:53;101417.03;;;14.38;91.06
71964;BME280;59834;52.124;5.422;2023-07-13T02:54:19;101416.19;;;14.37;91.27
71964;BME280;59834;52.124;5.422;2023-07-13T02:56:46;101414.38;;;14.38;91.49
71964;BME280;59834;52.124;5.422;2023-07-13T02:59:12;101418.19;;;14.34;91.41
71964;BME280;59834;52.124;5.422;2023-07-13T03:01:39;101420.09;;;14.32;92.00
71964;BME280;59834;52.124;5.422;2023-07-13T03:04:07;101420.94;;;14.32;92.02
71964;BME280;59834;52.124;5.422;2023-07-13T03:06:34;101423.47;;;14.34;92.13
71964;BME280;59834;52.124;5.422;2023-07-13T03:09:01;101419.03;;;14.34;92.86
71964;BME280;59834;52.124;5.422;2023-07-13T03:11:27;101427.25;;;14.30;92.85
71964;BME280;59834;52.124;5.422;2023-07-13T03:13:54;101427.69;;;14.24;93.14
71964;BME280;59834;52.124;5.422;2023-07-13T03:16:21;101434.19;;;14.18;93.53
71964;BME280;59834;52.124;5.422;2023-07-13T03:18:48;101426.63;;;14.13;94.35
71964;BME280;59834;52.124;5.422;2023-07-13T03:21:15;101427.38;;;14.15;94.31
71964;BME280;59834;52.124;5.422;2023-07-13T03:23:41;101430.75;;;14.18;94.23
71964;BME280;59834;52.124;5.422;2023-07-13T03:26:09;101433.38;;;14.18;94.32
71964;BME280;59834;52.124;5.422;2023-07-13T03:28:37;101432.03;;;14.12;94.84
71964;BME280;59834;52.124;5.422;2023-07-13T03:31:07;101440.75;;;14.12;94.83
71964;BME280;59834;52.124;5.422;2023-07-13T03:33:34;101438.22;;;14.11;95.45
71964;BME280;59834;52.124;5.422;2023-07-13T03:36:03;101448.53;;;14.14;95.46
71964;BME280;59834;52.124;5.422;2023-07-13T03:38:29;101451.91;;;14.16;95.75
71964;BME280;59834;52.124;5.422;2023-07-13T03:40:56;101450.13;;;14.17;96.33
71964;BME280;59834;52.124;5.422;2023-07-13T03:43:23;101454.56;;;14.16;96.45
71964;BME280;59834;52.124;5.422;2023-07-13T03:45:49;101456.34;;;14.15;96.40
71964;BME280;59834;52.124;5.422;2023-07-13T03:48:16;101457.06;;;14.18;96.43
71964;BME280;59834;52.124;5.422;2023-07-13T03:50:43;101457.81;;;14.20;96.83
71964;BME280;59834;52.124;5.422;2023-07-13T03:53:09;101454.75;;;14.26;96.69
71964;BME280;59834;52.124;5.422;2023-07-13T03:55:36;101459.81;;;14.29;96.61
71964;BME280;59834;52.124;5.422;2023-07-13T03:58:26;101472.66;;;14.33;96.04
71964;BME280;59834;52.124;5.422;2023-07-13T04:00:54;101463.72;;;14.36;96.11
71964;BME280;59834;52.124;5.422;2023-07-13T04:03:21;101468.75;;;14.39;96.22
71964;BME280;59834;52.124;5.422;2023-07-13T04:05:48;101467.69;;;14.42;96.33
71964;BME280;59834;52.124;5.422;2023-07-13T04:08:14;101471.28;;;14.41;95.94
71964;BME280;59834;52.124;5.422;2023-07-13T04:10:42;101473.69;;;14.44;96.32
71964;BME280;59834;52.124;5.422;2023-07-13T04:13:09;101484.78;;;14.49;95.92
71964;BME280;59834;52.124;5.422;2023-07-13T04:15:35;101480.34;;;14.49;95.72
71964;BME280;59834;52.124;5.422;2023-07-13T04:18:02;101482.78;;;14.52;95.90
71964;BME280;59834;52.124;5.422;2023-07-13T04:20:29;101480.78;;;14.56;95.54
71964;BME280;59834;52.124;5.422;2023-07-13T04:22:56;101488.78;;;14.67;95.29
71964;BME280;59834;52.124;5.422;2023-07-13T04:25:24;101486.72;;;14.96;94.46
71964;BME280;59834;52.124;5.422;2023-07-13T04:27:50;101484.13;;;15.55;91.38
71964;BME280;59834;52.124;5.422;2023-07-13T04:30:18;101484.59;;;15.73;89.92
71964;BME280;59834;52.124;5.422;2023-07-13T04:32:45;101481.31;;;16.05;88.44
71964;BME280;59834;52.124;5.422;2023-07-13T04:35:12;101484.41;;;15.64;88.69
71964;BME280;59834;52.124;5.422;2023-07-13T04:37:40;101495.34;;;15.22;91.19
71964;BME280;59834;52.124;5.422;2023-07-13T04:40:07;101484.66;;;15.13;92.08
71964;BME280;59834;52.124;5.422;2023-07-13T04:42:38;101487.75;;;15.30;91.93
71964;BME280;59834;52.124;5.422;2023-07-13T04:45:06;101486.94;;;15.41;91.43
71964;BME280;59834;52.124;5.422;2023-07-13T04:47:33;101480.81;;;15.65;90.79
71964;BME280;59834;52.124;5.422;2023-07-13T04:49:59;101480.63;;;15.68;90.27
71964;BME280;59834;52.124;5.422;2023-07-13T04:52:26;101488.09;;;15.50;90.70
71964;BME280;59834;52.124;5.422;2023-07-13T04:54:52;101497.28;;;15.44;91.26
71964;BME280;59834;52.124;5.422;2023-07-13T04:57:19;101483.88;;;15.47;91.56
71964;BME280;59834;52.124;5.422;2023-07-13T04:59:45;101486.59;;;15.46;91.87
71964;BME280;59834;52.124;5.422;2023-07-13T05:02:12;101479.81;;;15.54;91.48
71964;BME280;59834;52.124;5.422;2023-07-13T05:04:38;101480.88;;;15.76;90.97
71964;BME280;59834;52.124;5.422;2023-07-13T05:07:05;101484.41;;;15.99;90.18
71964;BME280;59834;52.124;5.422;2023-07-13T05:09:32;101490.84;;;16.53;88.36
71964;BME280;59834;52.124;5.422;2023-07-13T05:11:59;101490.50;;;16.80;86.26
71964;BME280;59834;52.124;5.422;2023-07-13T05:14:25;101492.53;;;16.54;86.89
71964;BME280;59834;52.124;5.422;2023-07-13T05:16:52;101496.13;;;16.30;87.76
71964;BME280;59834;52.124;5.422;2023-07-13T05:19:18;101492.75;;;16.17;88.81
71964;BME280;59834;52.124;5.422;2023-07-13T05:21:45;101498.72;;;16.08;89.90
71964;BME280;59834;52.124;5.422;2023-07-13T05:24:11;101496.38;;;16.27;89.28
71964;BME280;59834;52.124;5.422;2023-07-13T05:26:51;101508.84;;;16.25;90.03
71964;BME280;59834;52.124;5.422;2023-07-13T05:29:17;101500.91;;;16.14;90.17
71964;BME280;59834;52.124;5.422;2023-07-13T05:31:44;101501.84;;;16.13;91.09
71964;BME280;59834;52.124;5.422;2023-07-13T05:34:11;101507.69;;;16.40;90.92
71964;BME280;59834;52.124;5.422;2023-07-13T05:36:37;101510.31;;;16.52;89.63
71964;BME280;59834;52.124;5.422;2023-07-13T05:39:04;101511.25;;;16.39;89.81
71964;BME280;59834;52.124;5.422;2023-07-13T05:41:31;101509.81;;;16.24;90.61
71964;BME280;59834;52.124;5.422;2023-07-13T05:43:57;101520.59;;;16.10;91.92
71964;BME280;59834;52.124;5.422;2023-07-13T05:46:25;101522.03;;;16.14;92.14
71964;BME280;59834;52.124;5.422;2023-07-13T05:48:52;101516.25;;;16.09;93.03
71964;BME280;59834;52.124;5.422;2023-07-13T05:51:19;101519.16;;;16.17;92.61
71964;BME280;59834;52.124;5.422;2023-07-13T05:53:45;101528.16;;;16.25;92.63
71964;BME280;59834;52.124;5.422;2023-07-13T05:56:12;101525.28;;;16.29;91.60
71964;BME280;59834;52.124;5.422;2023-07-13T05:58:38;101532.88;;;16.33;92.12
71964;BME280;59834;52.124;5.422;2023-07-13T06:01:08;101534.78;;;16.42;92.03
71964;BME280;59834;52.124;5.422;2023-07-13T06:03:37;101540.09;;;16.42;91.93
71964;BME280;59834;52.124;5.422;2023-07-13T06:06:08;101536.00;;;16.49;91.93
71964;BME280;59834;52.124;5.422;2023-07-13T06:08:35;101542.03;;;16.74;91.27
71964;BME280;59834;52.124;5.422;2023-07-13T06:11:04;101548.31;;;16.84;90.21
71964;BME280;59834;52.124;5.422;2023-07-13T06:13:32;101549.28;;;16.94;90.12
71964;BME280;59834;52.124;5.422;2023-07-13T06:16:01;101551.19;;;16.92;89.93
71964;BME280;59834;52.124;5.422;2023-07-13T06:18:31;101555.97;;;17.10;89.48
71964;BME280;59834;52.124;5.422;2023-07-13T06:20:58;101549.72;;;17.22;89.44
71964;BME280;59834;52.124;5.422;2023-07-13T06:23:25;101553.22;;;17.77;86.52
71964;BME280;59834;52.124;5.422;2023-07-13T06:25:52;101551.00;;;17.82;85.64
71964;BME280;59834;52.124;5.422;2023-07-13T06:28:18;101557.41;;;17.68;86.03
71964;BME280;59834;52.124;5.422;2023-07-13T06:30:46;101563.28;;;17.72;86.58
71964;BME280;59834;52.124;5.422;2023-07-13T06:33:12;101572.34;;;17.81;86.02
71964;BME280;59834;52.124;5.422;2023-07-13T06:35:39;101573.75;;;17.85;85.52
71964;BME280;59834;52.124;5.422;2023-07-13T06:38:05;101573.84;;;17.95;85.65
71964;BME280;59834;52.124;5.422;2023-07-13T06:40:33;101571.25;;;17.72;85.87
71964;BME280;59834;52.124;5.422;2023-07-13T06:42:59;101568.41;;;17.53;86.51
71964;BME280;59834;52.124;5.422;2023-07-13T06:45:26;101573.69;;;17.53;87.61
71964;BME280;59834;52.124;5.422;2023-07-13T06:47:52;101570.69;;;17.57;87.73
71964;BME280;59834;52.124;5.422;2023-07-13T06:50:19;101564.53;;;17.57;87.53
71964;BME280;59834;52.124;5.422;2023-07-13T06:52:46;101571.88;;;17.53;87.12
71964;BME280;59834;52.124;5.422;2023-07-13T06:55:12;101565.25;;;17.59;87.88
71964;BME280;59834;52.124;5.422;2023-07-13T06:57:39;101566.69;;;17.63;87.23
71964;BME280;59834;52.124;5.422;2023-07-13T07:00:06;101574.34;;;17.88;86.57
71964;BME280;59834;52.124;5.422;2023-07-13T07:02:33;101568.63;;;19.07;82.70
71964;BME280;59834;52.124;5.422;2023-07-13T07:04:59;101571.19;;;19.38;78.74
71964;BME280;59834;52.124;5.422;2023-07-13T07:07:27;101576.78;;;19.25;79.19
71964;BME280;59834;52.124;5.422;2023-07-13T07:09:53;101596.63;;;18.91;80.44
71964;BME280;59834;52.124;5.422;2023-07-13T07:12:20;101586.22;;;18.57;81.93
71964;BME280;59834;52.124;5.422;2023-07-13T07:14:47;101596.78;;;18.68;81.88
71964;BME280;59834;52.124;5.422;2023-07-13T07:17:13;101596.19;;;18.86;80.69
71964;BME280;59834;52.124;5.422;2023-07-13T07:19:40;101595.56;;;19.03;80.44
71964;BME280;59834;52.124;5.422;2023-07-13T07:22:07;101598.00;;;18.85;80.31
71964;BME280;59834;52.124;5.422;2023-07-13T07:24:34;101597.44;;;18.81;80.94
71964;BME280;59834;52.124;5.422;2023-07-13T07:27:01;101597.50;;;18.49;81.80
71964;BME280;59834;52.124;5.422;2023-07-13T07:29:30;101602.81;;;18.28;84.47
71964;BME280;59834;52.124;5.422;2023-07-13T07:32:00;101601.66;;;18.21;86.75
71964;BME280;59834;52.124;5.422;2023-07-13T07:34:32;101604.72;;;18.26;89.18
71964;BME280;59834;52.124;5.422;2023-07-13T07:37:00;101599.56;;;18.25;89.49
71964;BME280;59834;52.124;5.422;2023-07-13T07:39:30;101604.56;;;18.18;88.78
71964;BME280;59834;52.124;5.422;2023-07-13T07:41:57;101604.06;;;18.13;88.89
71964;BME280;59834;52.124;5.422;2023-07-13T07:44:24;101594.06;;;18.17;89.86
71964;BME280;59834;52.124;5.422;2023-07-13T07:46:51;101599.75;;;18.12;90.13
71964;BME280;59834;52.124;5.422;2023-07-13T07:49:17;101592.25;;;18.17;91.61
71964;BME280;59834;52.124;5.422;2023-07-13T07:51:44;101587.16;;;18.25;91.01
71964;BME280;59834;52.124;5.422;2023-07-13T07:54:11;101589.88;;;18.35;90.64
71964;BME280;59834;52.124;5.422;2023-07-13T07:56:47;101587.59;;;18.30;89.37
71964;BME280;59834;52.124;5.422;2023-07-13T07:59:34;101576.41;;;18.27;90.28
71964;BME280;59834;52.124;5.422;2023-07-13T08:02:03;101576.81;;;18.22;89.96
71964;BME280;59834;52.124;5.422;2023-07-13T08:04:33;101579.19;;;18.46;89.92
71964;BME280;59834;52.124;5.422;2023-07-13T08:07:02;101585.03;;;18.71;88.20
71964;BME280;59834;52.124;5.422;2023-07-13T08:09:29;101594.56;;;19.04;86.52
71964;BME280;59834;52.124;5.422;2023-07-13T08:11:56;101582.88;;;19.66;85.28
71964;BME280;59834;52.124;5.422;2023-07-13T08:14:25;101592.66;;;19.95;83.44
71964;BME280;59834;52.124;5.422;2023-07-13T08:17:12;101592.94;;;19.92;81.93
71964;BME280;59834;52.124;5.422;2023-07-13T08:19:38;101590.72;;;19.87;81.27
71964;BME280;59834;52.124;5.422;2023-07-13T08:22:06;101583.41;;;19.60;80.00
71964;BME280;59834;52.124;5.422;2023-07-13T08:24:33;101583.75;;;19.26;81.37
71964;BME280;59834;52.124;5.422;2023-07-13T08:26:59;101595.00;;;18.99;82.69
71964;BME280;59834;52.124;5.422;2023-07-13T08:29:26;101595.47;;;18.83;84.11
71964;BME280;59834;52.124;5.422;2023-07-13T08:31:52;101594.53;;;19.25;82.76
71964;BME280;59834;52.124;5.422;2023-07-13T08:34:20;101595.81;;;19.40;81.28
71964;BME280;59834;52.124;5.422;2023-07-13T08:36:47;101584.66;;;19.46;80.45
71964;BME280;59834;52.124;5.422;2023-07-13T08:39:13;101574.72;;;19.58;78.97
71964;BME280;59834;52.124;5.422;2023-07-13T08:41:40;101570.19;;;19.80;77.78
71964;BME280;59834;52.124;5.422;2023-07-13T08:44:20;101587.22;;;19.77;74.91
71964;BME280;59834;52.124;5.422;2023-07-13T08:46:51;101588.63;;;19.81;74.33
71964;BME280;59834;52.124;5.422;2023-07-13T08:49:22;101582.59;;;19.98;72.88
71964;BME280;59834;52.124;5.422;2023-07-13T08:51:54;101605.94;;;20.34;72.94
71964;BME280;59834;52.124;5.422;2023-07-13T08:54:35;101600.91;;;20.40;69.47
71964;BME280;59834;52.124;5.422;2023-07-13T08:57:13;101606.78;;;20.24;69.73
71964;BME280;59834;52.124;5.422;2023-07-13T08:59:40;101609.16;;;20.08;70.75
71964;BME280;59834;52.124;5.422;2023-07-13T09:02:25;101607.56;;;19.57;71.69
71964;BME280;59834;52.124;5.422;2023-07-13T09:05:03;101621.06;;;19.35;73.72
71964;BME280;59834;52.124;5.422;2023-07-13T09:10:27;101618.75;;;19.11;72.70
71964;BME280;59834;52.124;5.422;2023-07-13T09:15:47;101616.28;;;19.19;76.32
71964;BME280;59834;52.124;5.422;2023-07-13T09:18:27;101613.41;;;19.31;75.57
71964;BME280;59834;52.124;5.422;2023-07-13T09:21:17;101610.03;;;19.29;77.76
71964;BME280;59834;52.124;5.422;2023-07-13T09:23:45;101611.69;;;19.30;78.71
71964;BME280;59834;52.124;5.422;2023-07-13T09:26:20;101610.31;;;19.26;78.58
71964;BME280;59834;52.124;5.422;2023-07-13T09:28:51;101609.81;;;19.52;77.65
71964;BME280;59834;52.124;5.422;2023-07-13T09:31:26;101604.16;;;19.76;76.94
71964;BME280;59834;52.124;5.422;2023-07-13T09:33:55;101609.03;;;19.90;76.44
71964;BME280;59834;52.124;5.422;2023-07-13T09:36:31;101602.19;;;20.27;74.15
71964;BME280;59834;52.124;5.422;2023-07-13T09:39:11;101607.03;;;20.41;72.41
71964;BME280;59834;52.124;5.422;2023-07-13T09:44:30;101606.91;;;20.52;68.75
71964;BME280;59834;52.124;5.422;2023-07-13T09:46:57;101598.13;;;20.22;69.11
71964;BME280;59834;52.124;5.422;2023-07-13T09:49:29;101610.03;;;19.89;69.98
71964;BME280;59834;52.124;5.422;2023-07-13T09:52:02;101624.91;;;19.61;71.99
71964;BME280;59834;52.124;5.422;2023-07-13T09:54:29;101650.28;;;19.35;74.47
71964;BME280;59834;52.124;5.422;2023-07-13T09:56:57;101659.22;;;19.03;76.59
71964;BME280;59834;52.124;5.422;2023-07-13T09:59:29;101656.78;;;18.48;81.24
71964;BME280;59834;52.124;5.422;2023-07-13T10:01:56;101657.97;;;18.23;85.08
71964;BME280;59834;52.124;5.422;2023-07-13T10:04:30;101656.16;;;18.24;85.25
71964;BME280;59834;52.124;5.422;2023-07-13T10:07:12;101657.72;;;18.26;83.20
71964;BME280;59834;52.124;5.422;2023-07-13T10:09:56;101655.13;;;18.68;83.26
71964;BME280;59834;52.124;5.422;2023-07-13T10:12:24;101652.09;;;19.34;81.99
71964;BME280;59834;52.124;5.422;2023-07-13T10:14:54;101646.63;;;19.66;81.13
71964;BME280;59834;52.124;5.422;2023-07-13T10:17:34;101655.00;;;19.71;80.43
71964;BME280;59834;52.124;5.422;2023-07-13T10:20:04;101659.66;;;19.79;79.19
71964;BME280;59834;52.124;5.422;2023-07-13T10:22:51;101660.59;;;19.68;79.98
71964;BME280;59834;52.124;5.422;2023-07-13T10:25:22;101663.97;;;19.70;80.25
71964;BME280;59834;52.124;5.422;2023-07-13T10:27:52;101656.72;;;19.72;80.31
71964;BME280;59834;52.124;5.422;2023-07-13T10:30:29;101654.22;;;20.00;79.04
71964;BME280;59834;52.124;5.422;2023-07-13T10:33:02;101656.00;;;20.48;77.96
71964;BME280;59834;52.124;5.422;2023-07-13T10:35:30;101652.50;;;20.77;77.78
71964;BME280;59834;52.124;5.422;2023-07-13T10:38:02;101646.59;;;20.83;79.08
71964;BME280;59834;52.124;5.422;2023-07-13T10:40:55;101655.34;;;20.46;78.01
71964;BME280;59834;52.124;5.422;2023-07-13T10:43:28;101658.69;;;20.38;77.88
71964;BME280;59834;52.124;5.422;2023-07-13T10:45:59;101666.25;;;20.23;78.76
71964;BME280;59834;52.124;5.422;2023-07-13T10:48:27;101671.13;;;20.18;77.44
71964;BME280;59834;52.124;5.422;2023-07-13T10:50:56;101661.50;;;20.08;75.77
71964;BME280;59834;52.124;5.422;2023-07-13T10:53:30;101667.91;;;20.34;74.82
71964;BME280;59834;52.124;5.422;2023-07-13T10:56:00;101667.50;;;20.68;73.39
71964;BME280;59834;52.124;5.422;2023-07-13T10:58:38;101657.78;;;20.96;75.18
71964;BME280;59834;52.124;5.422;2023-07-13T11:01:11;101662.53;;;20.92;71.40
71964;BME280;59834;52.124;5.422;2023-07-13T11:04:00;101667.94;;;21.10;71.98
71964;BME280;59834;52.124;5.422;2023-07-13T11:06:36;101662.25;;;21.33;67.77
71964;BME280;59834;52.124;5.422;2023-07-13T11:09:35;101668.81;;;21.38;66.61
71964;BME280;59834;52.124;5.422;2023-07-13T11:12:26;101681.56;;;21.45;65.33
71964;BME280;59834;52.124;5.422;2023-07-13T11:22:46;101676.88;;;21.56;64.92
71964;BME280;59834;52.124;5.422;2023-07-13T11:25:26;101675.22;;;21.46;66.02
71964;BME280;59834;52.124;5.422;2023-07-13T11:30:59;101670.91;;;21.45;65.30
71964;BME280;59834;52.124;5.422;2023-07-13T11:36:13;101664.28;;;21.49;63.84
71964;BME280;59834;52.124;5.422;2023-07-13T11:41:15;101667.16;;;20.90;67.13
71964;BME280;59834;52.124;5.422;2023-07-13T11:43:44;101685.63;;;20.92;68.55
71964;BME280;59834;52.124;5.422;2023-07-13T11:46:20;101691.19;;;21.08;68.55
71964;BME280;59834;52.124;5.422;2023-07-13T11:48:48;101701.44;;;21.03;69.07
71964;BME280;59834;52.124;5.422;2023-07-13T11:53:48;101696.91;;;20.66;69.38
71964;BME280;59834;52.124;5.422;2023-07-13T11:56:15;101701.97;;;20.60;70.15
71964;BME280;59834;52.124;5.422;2023-07-13T11:58:42;101702.09;;;20.58;71.62
71964;BME280;59834;52.124;5.422;2023-07-13T12:01:25;101705.03;;;20.55;72.41
71964;BME280;59834;52.124;5.422;2023-07-13T12:03:53;101712.56;;;20.50;71.38
71964;BME280;59834;52.124;5.422;2023-07-13T12:06:29;101707.81;;;20.44;74.56
71964;BME280;59834;52.124;5.422;2023-07-13T12:09:00;101700.25;;;20.49;73.82
71964;BME280;59834;52.124;5.422;2023-07-13T12:11:27;101691.81;;;20.92;73.51
71964;BME280;59834;52.124;5.422;2023-07-13T12:13:54;101703.16;;;21.32;72.94
71964;BME280;59834;52.124;5.422;2023-07-13T12:16:29;101699.84;;;21.20;73.05
71964;BME280;59834;52.124;5.422;2023-07-13T12:18:56;101693.75;;;21.00;73.64
71964;BME280;59834;52.124;5.422;2023-07-13T12:21:30;101700.03;;;20.99;73.10
71964;BME280;59834;52.124;5.422;2023-07-13T12:23:57;101702.69;;;20.99;74.05
71964;BME280;59834;52.124;5.422;2023-07-13T12:26:24;101704.25;;;20.92;72.40
71964;BME280;59834;52.124;5.422;2023-07-13T12:28:53;101699.94;;;20.91;73.64
71964;BME280;59834;52.124;5.422;2023-07-13T12:33:58;101700.69;;;21.21;73.55
71964;BME280;59834;52.124;5.422;2023-07-13T12:36:25;101696.22;;;21.11;70.91
71964;BME280;59834;52.124;5.422;2023-07-13T12:38:53;101694.16;;;21.42;69.63
71964;BME280;59834;52.124;5.422;2023-07-13T12:41:20;101700.75;;;21.94;69.96
71964;BME280;59834;52.124;5.422;2023-07-13T12:43:47;101693.41;;;22.41;67.69
71964;BME280;59834;52.124;5.422;2023-07-13T12:46:19;101685.31;;;22.51;67.62
71964;BME280;59834;52.124;5.422;2023-07-13T12:48:52;101686.66;;;22.55;66.34
71964;BME280;59834;52.124;5.422;2023-07-13T12:51:38;101687.97;;;22.33;65.66
71964;BME280;59834;52.124;5.422;2023-07-13T12:54:17;101693.34;;;21.70;67.00
71964;BME280;59834;52.124;5.422;2023-07-13T12:56:49;101702.50;;;21.57;66.87
71964;BME280;59834;52.124;5.422;2023-07-13T12:59:21;101695.03;;;21.88;64.07
71964;BME280;59834;52.124;5.422;2023-07-13T13:01:49;101684.03;;;22.19;62.97
71964;BME280;59834;52.124;5.422;2023-07-13T13:04:16;101687.22;;;22.41;62.70
71964;BME280;59834;52.124;5.422;2023-07-13T13:06:49;101691.59;;;21.96;63.46
71964;BME280;59834;52.124;5.422;2023-07-13T13:09:17;101700.72;;;21.76;64.06
71964;BME280;59834;52.124;5.422;2023-07-13T13:11:45;101695.53;;;21.56;64.71
71964;BME280;59834;52.124;5.422;2023-07-13T13:14:11;101697.19;;;21.57;65.45
71964;BME280;59834;52.124;5.422;2023-07-13T13:16:49;101704.16;;;21.86;65.24
71964;BME280;59834;52.124;5.422;2023-07-13T13:19:19;101688.63;;;21.99;62.51
71964;BME280;59834;52.124;5.422;2023-07-13T13:21:48;101689.16;;;21.85;62.67
71964;BME280;59834;52.124;5.422;2023-07-13T13:24:19;101691.94;;;21.93;62.09
71964;BME280;59834;52.124;5.422;2023-07-13T13:26:47;101689.56;;;22.08;61.47
71964;BME280;59834;52.124;5.422;2023-07-13T13:29:24;101700.00;;;22.01;62.28
71964;BME280;59834;52.124;5.422;2023-07-13T13:31:52;101703.56;;;21.92;61.18